Denali Natl Park, AK

11:34 AM AKDT en Mayo 27, 2017 (GMT -0800)
Yanert View 2350ft | | Change Station

Alt 2350 ft 63.65 °N, 148.77 °W | Updated 6 seconds ago

Muy nublado
Muy nublado
41.4 ° F
Sensación térmica 37 ° F
N
7.6
Viento Variable Viento desde SO
Gusts 9.8 mph

Hoy
Alta -- | Baja -- ° F
--% Posibilidad de precipitaciones
Ayer
Alta -- | Baja -- ° F
Precip. -- pul
Presión 30.05 pul
Visibilidad 10.0 Millas
Nubes Muy nublado 5000 ft
Muy nublado 6000 ft
Vientos helados 37 ° F
Punto de rocío 23 ° F
Humedad 47%
Precipitaciones 0.00 pul
Espesor de la nieve No disponible.
4:08 AM 11:37 PM
Creciente, 6% visible
METAR PAIN 271916Z 17007G15KT 10SM BKN050 BKN060 07/M05 A3005 RMK AO1
Presión 30.05 pul
Visibilidad 10.0 Millas
Nubes Muy nublado 5000 ft
Muy nublado 6000 ft
Vientos helados 37 ° F
Punto de rocío 23 ° F
Humedad 47%
Precipitaciones 0.00 pul
Espesor de la nieve No disponible.
4:08 AM 11:37 PM
Creciente, 6% visible
METAR PAIN 271916Z 17007G15KT 10SM BKN050 BKN060 07/M05 A3005 RMK AO1

Get Severe Weather Alerts

Thanks for signing up!

Be on the lookout for a verification email in your inbox.

You'll start receiving the daily forecast at 6 AM.

×

10-Day Weather Forecast

Almanac

Astronomía

May. 27, 2017 Salida Puesta
Hora real
Crepúsculo civil
Crepúsculo náutico
Crepúsculo astronómico
Luna
Horas de luz
Horas de luz
Tomorrow will be .
, % of the Moon is Illuminated

Extremos de hoy

Máximos del estado Bajos del estado

Community

WunderPhotos

Category 6

Welcome to Category 6. This is the collective home for Weather Underground's featured writeups by Dr. Jeff Masters (right), Bob Henson (left), Chris Burt, and other regular contributors.

Nearby

Calidad del aire

  Calidad del aire Índice AQ Contaminante
Not available.

Grosos de nieve

Estación Profundido Altura

Actividad de terremotos

Ciudad Distance Mag. Tiempo y dato
Magnitud mínima muestra es 2,5.

Temperaturas de aguas costeras

Lugar Temperatura

Stations

Estaciones meteorológicas cercanas

Ubicación de la estación Temp. Vientos helados Punto de rocío Humedad Viento Precip. Alt Actualizado Tipo
                   

Watches & Warnings

There are currently no watches in effect.